createdAt,value
2019-04-11T00:00:39.591Z,73.15
2019-04-11T00:01:51.900Z,73.15
2019-04-11T00:02:53.159Z,74.09
2019-04-11T00:03:59.893Z,74.09
2019-04-11T00:05:02.839Z,73.63
2019-04-11T00:06:05.632Z,73.97
2019-04-11T00:07:08.936Z,74.36
2019-04-11T00:08:12.136Z,74.06
2019-04-11T00:09:18.756Z,73.87
2019-04-11T00:10:22.849Z,73.96
2019-04-11T00:11:26.065Z,73.96
2019-04-11T00:12:30.504Z,73.75
2019-04-11T00:13:35.976Z,73.65
2019-04-11T00:14:38.046Z,73.65
2019-04-11T00:15:41.123Z,73.67
2019-04-11T00:16:43.949Z,73.21
2019-04-11T00:17:47.179Z,73.21
2019-04-11T00:18:51.314Z,74.07
2019-04-11T00:19:55.744Z,74.57
2019-04-11T00:20:58.677Z,74.44
2019-04-11T00:22:01.959Z,74.76
2019-04-11T00:23:06.065Z,74.36
2019-04-11T00:24:10.326Z,74.36
2019-04-11T00:25:15.906Z,75.07
2019-04-11T00:26:18.723Z,75.07
2019-04-11T00:27:21.528Z,74.81
2019-04-11T00:28:24.421Z,74.75
2019-04-11T00:29:28.199Z,74.80
2019-04-11T00:30:32.345Z,74.80
2019-04-11T00:31:36.814Z,75.16
2019-04-11T00:32:39.814Z,75.10
2019-04-11T00:33:42.908Z,75.23
2019-04-11T00:34:47.003Z,74.76
2019-04-11T00:35:50.274Z,75.37
2019-04-11T00:36:54.798Z,75.00
2019-04-11T00:37:57.774Z,74.74
2019-04-11T00:39:01.389Z,75.16
2019-04-11T00:40:04.255Z,74.73
2019-04-11T00:41:07.972Z,75.40
2019-04-11T00:42:12.423Z,75.40
2019-04-11T00:43:27.197Z,75.30
2019-04-11T00:44:20.905Z,75.76
2019-04-11T00:45:23.890Z,75.67
2019-04-11T00:46:26.715Z,75.67
2019-04-11T00:47:31.115Z,75.80
2019-04-11T00:48:35.525Z,75.88
2019-04-11T00:49:38.751Z,75.37
2019-04-11T00:50:41.616Z,75.64
2019-04-11T00:51:44.446Z,75.97
2019-04-11T00:52:47.651Z,76.06
2019-04-11T00:53:50.509Z,76.06
2019-04-11T00:54:55.274Z,76.15
2019-04-11T00:55:58.204Z,76.11
2019-04-11T00:57:01.068Z,75.63
2019-04-11T00:58:03.970Z,75.66
2019-04-11T00:59:07.886Z,76.13
2019-04-11T01:00:11.097Z,76.13
2019-04-11T01:01:15.656Z,76.18
2019-04-11T01:02:18.509Z,76.72
2019-04-11T01:03:22.140Z,76.72
2019-04-11T01:04:25.561Z,76.62
2019-04-11T01:05:28.385Z,76.37
2019-04-11T01:06:31.550Z,76.11
2019-04-11T01:07:35.341Z,76.42
2019-04-11T01:08:38.214Z,76.73
2019-04-11T01:09:42.216Z,76.73
2019-04-11T01:10:45.620Z,77.05
2019-04-11T01:11:48.518Z,76.59
2019-04-11T01:12:51.365Z,76.79
2019-04-11T01:13:55.526Z,76.86
2019-04-11T01:14:59.440Z,76.78
2019-04-11T01:16:11.152Z,76.85
2019-04-11T01:17:14.928Z,76.81
2019-04-11T01:18:18.063Z,76.31
2019-04-11T01:19:22.595Z,76.94
2019-04-11T01:20:25.869Z,76.98
2019-04-11T01:21:28.683Z,76.98
2019-04-11T01:22:31.976Z,76.95
2019-04-11T01:23:35.359Z,76.85
2019-04-11T01:24:38.273Z,76.85
2019-04-11T01:25:41.495Z,77.02
2019-04-11T01:26:47.611Z,77.27
2019-04-11T01:27:54.272Z,77.17
2019-04-11T01:28:57.148Z,76.55
2019-04-11T01:30:00.054Z,76.42
2019-04-11T01:31:05.742Z,76.96
2019-04-11T01:32:10.538Z,76.91
2019-04-11T01:33:13.752Z,76.91
2019-04-11T01:34:18.025Z,77.08
2019-04-11T01:35:21.407Z,76.79
2019-04-11T01:36:24.240Z,77.17
2019-04-11T01:37:28.195Z,77.13
2019-04-11T01:38:32.519Z,76.82
2019-04-11T01:39:47.406Z,76.82
2019-04-11T01:40:50.350Z,77.62
2019-04-11T01:41:53.442Z,77.70
2019-04-11T01:42:56.292Z,77.57
2019-04-11T01:44:03.414Z,77.49
2019-04-11T01:45:05.247Z,77.29
2019-04-11T01:46:09.647Z,77.29
2019-04-11T01:47:15.280Z,77.80
2019-04-11T01:48:25.772Z,77.87
2019-04-11T01:49:28.642Z,78.00
2019-04-11T01:50:34.808Z,78.00
2019-04-11T01:51:38.014Z,78.15
2019-04-11T01:52:40.930Z,78.24
2019-04-11T01:53:43.717Z,77.94
2019-04-11T01:54:46.508Z,78.63
2019-04-11T01:55:50.439Z,78.43
2019-04-11T01:56:53.709Z,78.43
2019-04-11T01:57:56.733Z,78.57
2019-04-11T01:58:59.869Z,78.57
2019-04-11T02:00:03.912Z,78.72
2019-04-11T02:01:23.020Z,78.72
2019-04-11T02:02:50.948Z,78.47
2019-04-11T02:03:59.154Z,78.04
2019-04-11T02:05:08.406Z,78.26
2019-04-11T02:06:11.837Z,78.26
2019-04-11T02:07:14.809Z,78.07
2019-04-11T02:08:19.601Z,78.26
2019-04-11T02:09:22.622Z,77.86
2019-04-11T02:10:26.720Z,77.99
2019-04-11T02:11:29.843Z,77.99
2019-04-11T02:12:32.649Z,77.91
2019-04-11T02:13:36.280Z,78.03
2019-04-11T02:14:39.647Z,77.85
2019-04-11T02:15:42.480Z,78.19
2019-04-11T02:16:45.422Z,78.27
2019-04-11T02:17:48.819Z,78.25
2019-04-11T02:18:52.156Z,78.24
2019-04-11T02:19:55.047Z,78.24
2019-04-11T02:20:57.921Z,77.88
2019-04-11T02:22:32.648Z,77.88
2019-04-11T02:23:49.449Z,77.70
2019-04-11T02:24:57.913Z,77.70
2019-04-11T02:26:20.924Z,78.00
2019-04-11T02:27:27.421Z,78.00
2019-04-11T02:28:30.937Z,78.01
2019-04-11T02:29:33.854Z,78.01
2019-04-11T02:30:41.714Z,77.77
2019-04-11T02:31:44.571Z,77.59
2019-04-11T02:32:49.859Z,77.59
2019-04-11T02:33:52.897Z,78.37
2019-04-11T02:34:58.890Z,78.37
2019-04-11T02:36:00.890Z,78.33
2019-04-11T02:37:05.162Z,78.20
2019-04-11T02:38:12.627Z,78.25
2019-04-11T02:39:19.283Z,78.09
2019-04-11T02:40:22.946Z,77.92
2019-04-11T02:41:25.458Z,77.79
2019-04-11T02:42:28.366Z,77.63
2019-04-11T02:43:31.956Z,78.14
2019-04-11T02:44:53.187Z,77.91
2019-04-11T02:45:52.620Z,78.47
2019-04-11T02:46:57.117Z,78.47
2019-04-11T02:47:51.274Z,78.57
2019-04-11T02:48:56.641Z,78.46
2019-04-11T02:49:59.442Z,78.56
2019-04-11T02:51:03.484Z,78.46
2019-04-11T02:52:07.853Z,78.53
2019-04-11T02:53:12.578Z,78.96
2019-04-11T02:54:15.968Z,78.76
2019-04-11T02:55:20.987Z,78.62
2019-04-11T02:56:27.814Z,78.78
2019-04-11T02:57:32.233Z,78.68
2019-04-11T02:58:36.700Z,78.88
2019-04-11T02:59:40.919Z,79.09
2019-04-11T03:00:45.458Z,78.87
2019-04-11T03:01:48.818Z,78.56
2019-04-11T03:02:53.410Z,78.56
2019-04-11T03:03:58.819Z,78.55
2019-04-11T03:05:02.392Z,78.58
2019-04-11T03:06:06.932Z,79.16
2019-04-11T03:07:10.011Z,78.39
2019-04-11T03:08:17.851Z,78.39
2019-04-11T03:09:18.123Z,78.13
2019-04-11T03:10:22.338Z,78.21
2019-04-11T03:11:27.405Z,78.31
2019-04-11T03:12:31.690Z,78.92
2019-04-11T03:13:35.309Z,78.71
2019-04-11T03:15:01.956Z,78.55
2019-04-11T03:16:02.111Z,78.53
2019-04-11T03:16:57.537Z,78.75
2019-04-11T03:17:58.976Z,78.37
2019-04-11T03:19:18.449Z,78.40
2019-04-11T03:20:18.416Z,78.90
2019-04-11T03:21:13.654Z,78.49
2019-04-11T03:22:14.114Z,78.75
2019-04-11T03:23:20.660Z,78.73
2019-04-11T03:24:24.276Z,78.92
2019-04-11T03:25:28.396Z,78.92
2019-04-11T03:26:33.431Z,78.75
2019-04-11T03:27:37.241Z,78.46
2019-04-11T03:28:42.923Z,78.96
2019-04-11T03:29:45.822Z,79.05
2019-04-11T03:31:15.102Z,79.24
2019-04-11T03:33:55.378Z,79.03
2019-04-11T03:34:53.224Z,79.04
2019-04-11T03:36:01.216Z,79.29
2019-04-11T03:37:43.055Z,79.29
2019-04-11T03:38:44.171Z,79.54
2019-04-11T03:39:43.603Z,79.46
2019-04-11T03:40:48.261Z,79.49
2019-04-11T03:41:52.082Z,79.40
2019-04-11T03:42:55.493Z,79.75
2019-04-11T03:43:53.932Z,79.75
2019-04-11T03:45:11.286Z,80.02
2019-04-11T03:46:15.833Z,80.28
2019-04-11T03:47:12.754Z,79.82
2019-04-11T03:48:20.458Z,80.04
2019-04-11T03:49:20.720Z,80.61
2019-04-11T03:50:19.446Z,79.99
2019-04-11T03:51:21.145Z,79.99
2019-04-11T03:52:25.826Z,80.46
2019-04-11T03:53:29.890Z,80.19
2019-04-11T03:54:34.610Z,80.96
2019-04-11T03:55:39.077Z,80.98
2019-04-11T03:56:43.275Z,80.78
2019-04-11T03:57:47.038Z,80.87
2019-04-11T03:58:50.498Z,80.60
2019-04-11T03:59:54.490Z,80.72
2019-04-11T04:01:03.232Z,80.42
2019-04-11T04:02:03.256Z,80.42
2019-04-11T04:03:06.416Z,80.68
2019-04-11T04:04:11.117Z,80.40
2019-04-11T04:05:15.150Z,80.40
2019-04-11T04:06:19.141Z,80.38
2019-04-11T04:07:23.473Z,80.38
2019-04-11T04:08:27.578Z,80.06
2019-04-11T04:09:30.945Z,80.37
2019-04-11T04:10:36.143Z,80.87
2019-04-11T04:11:40.902Z,80.83
2019-04-11T04:12:45.266Z,80.67
2019-04-11T04:13:59.550Z,80.89
2019-04-11T04:15:39.158Z,81.24
2019-04-11T04:16:50.310Z,81.25
2019-04-11T04:18:15.056Z,81.25
2019-04-11T04:19:49.932Z,80.21
2019-04-11T04:21:17.556Z,80.21
2019-04-11T04:22:46.245Z,80.64
2019-04-11T04:23:51.896Z,80.98
2019-04-11T04:24:56.015Z,80.34
2019-04-11T04:26:01.049Z,80.85
2019-04-11T04:27:04.713Z,81.17
2019-04-11T04:28:10.152Z,81.17
2019-04-11T04:29:13.636Z,81.19
2019-04-11T04:30:18.084Z,81.36
2019-04-11T04:31:22.249Z,81.36
2019-04-11T04:32:25.467Z,80.99
2019-04-11T04:33:29.323Z,80.90
2019-04-11T04:34:35.943Z,81.13
2019-04-11T04:35:40.673Z,81.12
2019-04-11T04:36:43.842Z,81.58
2019-04-11T04:37:47.559Z,81.20
2019-04-11T04:38:52.658Z,81.39
2019-04-11T04:40:13.209Z,81.30
2019-04-11T04:41:11.286Z,81.56
2019-04-11T04:42:11.121Z,81.28
2019-04-11T04:43:10.389Z,81.33
2019-04-11T04:44:14.426Z,81.33
2019-04-11T04:45:19.106Z,81.70
2019-04-11T04:46:35.955Z,81.72
2019-04-11T04:47:37.157Z,81.71
2019-04-11T04:48:32.364Z,81.54
2019-04-11T04:49:38.622Z,81.61
2019-04-11T04:50:42.216Z,81.84
2019-04-11T04:51:45.802Z,81.49
2019-04-11T04:52:51.601Z,82.13
2019-04-11T04:53:55.771Z,81.95
2019-04-11T04:54:59.961Z,81.47
2019-04-11T04:56:03.615Z,81.47
2019-04-11T04:57:08.521Z,81.81
2019-04-11T04:58:15.663Z,82.00
2019-04-11T04:59:19.488Z,82.04
2019-04-11T05:00:23.747Z,81.98
2019-04-11T05:01:29.085Z,81.98
2019-04-11T05:02:32.692Z,82.26
2019-04-11T05:03:37.887Z,82.29
2019-04-11T05:04:40.892Z,82.29
2019-04-11T05:05:46.536Z,82.60
2019-04-11T05:06:50.850Z,81.88
2019-04-11T05:07:56.162Z,82.25
2019-04-11T05:09:00.195Z,82.00
2019-04-11T05:10:06.120Z,82.07
2019-04-11T05:11:07.783Z,82.25
2019-04-11T05:12:11.966Z,82.25
2019-04-11T05:13:17.063Z,81.83
2019-04-11T05:14:21.033Z,82.16
2019-04-11T05:15:24.415Z,82.04
2019-04-11T05:16:27.440Z,81.93
2019-04-11T05:17:32.227Z,81.50
2019-04-11T05:18:36.430Z,82.14
2019-04-11T05:19:40.475Z,82.05
2019-04-11T05:20:44.199Z,82.26
2019-04-11T05:21:47.815Z,81.80
2019-04-11T05:22:56.331Z,82.22
2019-04-11T05:23:59.271Z,82.22
2019-04-11T05:25:03.564Z,81.66
2019-04-11T05:26:07.548Z,81.66
2019-04-11T05:27:10.691Z,81.69
2019-04-11T05:28:14.029Z,81.45
2019-04-11T05:29:17.470Z,81.45
2019-04-11T05:43:51.869Z,80.39
2019-04-11T05:44:54.881Z,80.27
2019-04-11T05:45:58.337Z,79.99
2019-04-11T05:47:03.517Z,80.31
2019-04-11T05:48:09.416Z,79.61
2019-04-11T05:49:47.385Z,79.61
2019-04-11T05:50:52.668Z,79.69
2019-04-11T05:52:00.429Z,79.52
2019-04-11T05:53:07.331Z,79.40
2019-04-11T05:54:10.794Z,79.36
2019-04-11T05:55:13.865Z,79.39
2019-04-11T05:56:21.803Z,79.39
2019-04-11T05:57:33.629Z,78.82
2019-04-11T05:58:30.371Z,78.59
2019-04-11T05:59:33.433Z,78.02
2019-04-11T06:00:55.959Z,77.62
2019-04-11T06:02:07.650Z,77.62
2019-04-11T06:03:13.442Z,77.53
2019-04-11T06:04:28.204Z,77.06
2019-04-11T06:06:01.782Z,77.09
2019-04-11T06:07:21.339Z,75.91
2019-04-11T06:08:30.400Z,76.17
2019-04-11T06:09:38.177Z,75.25
2019-04-11T06:10:54.703Z,74.79
2019-04-11T06:12:33.810Z,74.15
2019-04-11T06:13:48.828Z,73.48
2019-04-11T06:15:13.925Z,73.54
2019-04-11T06:16:16.829Z,72.13
2019-04-11T06:17:21.845Z,72.47
2019-04-11T06:18:46.369Z,72.56
2019-04-11T06:20:14.418Z,70.55
2019-04-11T06:21:42.263Z,70.55
2019-04-11T06:22:56.253Z,67.34
2019-04-11T06:24:18.204Z,67.56
2019-04-11T06:25:43.257Z,66.44
2019-04-11T06:28:22.183Z,65.01
2019-04-11T06:29:36.918Z,64.51
2019-04-11T06:30:58.963Z,64.52
2019-04-11T06:32:23.769Z,63.34
2019-04-11T06:33:32.128Z,63.34
2019-04-11T06:34:39.625Z,62.10
2019-04-11T06:36:00.803Z,61.89
2019-04-11T06:37:29.785Z,61.88
2019-04-11T06:38:51.181Z,61.55
2019-04-11T06:40:09.655Z,61.14
2019-04-11T06:41:24.336Z,60.97
2019-04-11T06:42:45.511Z,59.23
2019-04-11T06:44:12.726Z,58.80
2019-04-11T06:45:32.890Z,58.80
2019-04-11T06:46:52.375Z,58.35
2019-04-11T06:48:28.229Z,58.35
2019-04-11T06:49:37.016Z,57.04
2019-04-11T06:51:11.589Z,56.23
2019-04-11T06:52:15.438Z,54.95
2019-04-11T06:53:22.563Z,54.95
2019-04-11T06:54:41.952Z,54.54
2019-04-11T06:56:34.942Z,54.59
2019-04-11T06:57:38.330Z,52.93
2019-04-11T06:58:47.956Z,53.06
2019-04-11T06:59:52.578Z,53.06
2019-04-11T07:01:14.206Z,53.54
2019-04-11T07:02:20.290Z,53.04
2019-04-11T07:03:30.373Z,52.04
2019-04-11T07:04:41.977Z,51.44
2019-04-11T07:06:02.882Z,51.14
2019-04-11T07:07:09.413Z,50.79
2019-04-11T07:08:12.414Z,50.79
2019-04-11T07:09:37.047Z,50.36
2019-04-11T07:10:45.331Z,50.34
2019-04-11T07:11:52.557Z,49.98
2019-04-11T07:13:00.777Z,49.66
2019-04-11T07:14:22.497Z,48.38
2019-04-11T07:15:31.554Z,48.73
2019-04-11T07:16:36.182Z,49.31
2019-04-11T07:17:56.725Z,48.86
2019-04-11T07:19:17.646Z,48.86
2019-04-11T07:20:38.273Z,47.96
2019-04-11T07:21:41.911Z,47.96
2019-04-11T07:23:02.233Z,46.90
2019-04-11T07:24:30.363Z,46.30
2019-04-11T07:25:55.965Z,46.65
2019-04-11T07:27:12.412Z,45.31
2019-04-11T07:28:37.054Z,45.31
2019-04-11T07:30:11.374Z,45.49
2019-04-11T07:31:32.026Z,44.77
2019-04-11T07:32:36.361Z,43.75
2019-04-11T07:33:52.483Z,43.75
2019-04-11T07:35:12.963Z,43.37
2019-04-11T07:36:49.874Z,43.60
2019-04-11T07:37:55.411Z,43.60
2019-04-11T07:39:03.267Z,43.10
2019-04-11T07:40:26.630Z,43.59
2019-04-11T07:41:47.937Z,41.75
2019-04-11T07:42:59.446Z,41.75
2019-04-11T07:44:00.680Z,42.98
2019-04-11T07:45:06.556Z,42.98
2019-04-11T07:46:29.005Z,42.02
2019-04-11T07:47:39.135Z,42.80
2019-04-11T07:48:42.910Z,42.46
2019-04-11T07:49:46.295Z,41.00
2019-04-11T07:50:49.222Z,41.36
2019-04-11T07:52:00.813Z,41.91
2019-04-11T07:53:04.986Z,42.45
2019-04-11T07:54:32.770Z,42.45
2019-04-11T07:55:36.512Z,41.29
2019-04-11T07:56:58.981Z,40.96
2019-04-11T07:58:22.081Z,39.89
2019-04-11T07:59:42.556Z,41.16
2019-04-11T08:01:16.855Z,40.57
2019-04-11T08:02:39.859Z,40.53
2019-04-11T08:04:06.019Z,40.53
2019-04-11T08:05:26.534Z,40.82
2019-04-11T08:06:47.886Z,41.39
2019-04-11T08:08:15.911Z,39.70
2019-04-11T08:09:43.917Z,39.70
2019-04-11T08:11:09.615Z,40.42
2019-04-11T08:12:18.857Z,40.42
2019-04-11T08:13:32.558Z,38.08
2019-04-11T08:14:55.253Z,38.08
2019-04-11T08:16:15.565Z,39.82
2019-04-11T08:17:30.943Z,39.53
2019-04-11T08:18:39.217Z,39.10
2019-04-11T08:20:01.068Z,39.17
2019-04-11T08:21:21.875Z,40.02
2019-04-11T08:22:43.258Z,38.84
2019-04-11T08:23:48.991Z,38.41
2019-04-11T08:25:17.435Z,37.57
2019-04-11T08:26:55.337Z,38.08
2019-04-11T08:28:02.999Z,37.06
2019-04-11T08:29:11.673Z,37.13
2019-04-11T08:30:10.851Z,36.79
2019-04-11T08:31:36.187Z,37.13
2019-04-11T08:33:04.544Z,35.98
2019-04-11T08:34:08.992Z,36.34
2019-04-11T08:35:34.835Z,36.87
2019-04-11T08:37:03.273Z,36.25
2019-04-11T08:38:10.121Z,36.06
2019-04-11T08:39:17.999Z,36.05
2019-04-11T08:40:21.843Z,34.71
2019-04-11T08:41:42.069Z,35.27
2019-04-11T08:43:07.694Z,35.27
2019-04-11T08:44:34.210Z,34.54
2019-04-11T08:45:42.326Z,34.97
2019-04-11T08:46:48.580Z,33.50
2019-04-11T08:47:56.902Z,34.34
2019-04-11T08:48:59.493Z,33.01
2019-04-11T08:50:02.575Z,35.98
2019-04-11T08:51:09.761Z,35.98
2019-04-11T08:52:44.417Z,35.30
2019-04-11T08:54:05.425Z,36.27
2019-04-11T08:55:43.025Z,36.32
2019-04-11T08:56:37.011Z,35.54
2019-04-11T08:57:54.028Z,35.62
2019-04-11T08:59:15.358Z,35.67
2019-04-11T09:00:37.979Z,35.47
2019-04-11T09:01:42.278Z,34.15
2019-04-11T09:02:51.955Z,34.17
2019-04-11T09:04:09.203Z,34.22
2019-04-11T09:05:40.953Z,35.02
2019-04-11T09:06:45.080Z,35.19
2019-04-11T09:08:10.013Z,35.25
2019-04-11T09:09:31.504Z,35.25
2019-04-11T09:10:52.530Z,33.48
2019-04-11T09:11:58.387Z,33.48
2019-04-11T09:13:19.388Z,33.42
2019-04-11T09:14:53.271Z,32.79
2019-04-11T09:16:13.483Z,32.79
2019-04-11T09:17:28.474Z,34.86
2019-04-11T09:18:34.788Z,34.51
2019-04-11T09:19:57.027Z,34.51
2019-04-11T09:21:24.407Z,34.19
2019-04-11T09:22:45.355Z,33.72
2019-04-11T09:23:51.952Z,33.24
2019-04-11T09:25:21.143Z,33.24
2019-04-11T09:26:42.473Z,33.14
2019-04-11T09:28:04.964Z,32.99
2019-04-11T09:29:08.312Z,32.99
2019-04-11T09:30:17.445Z,33.28
2019-04-11T09:31:42.565Z,33.56
2019-04-11T09:33:08.820Z,32.78
2019-04-11T09:34:30.527Z,32.85
2019-04-11T09:35:35.316Z,33.20
2019-04-11T09:37:00.906Z,33.35
2019-04-11T09:38:04.493Z,32.75
2019-04-11T09:39:10.998Z,33.08
2019-04-11T09:40:31.968Z,32.73
2019-04-11T09:41:54.491Z,32.62
2019-04-11T09:43:22.147Z,32.55
2019-04-11T09:44:26.241Z,32.46
2019-04-11T09:45:57.705Z,32.46
2019-04-11T09:47:24.505Z,32.60
2019-04-11T09:48:44.680Z,32.52
2019-04-11T09:49:53.700Z,31.82
2019-04-11T09:51:03.548Z,32.01
2019-04-11T09:52:12.157Z,32.41
2019-04-11T09:53:16.312Z,32.40
2019-04-11T09:54:36.603Z,32.27
2019-04-11T09:56:04.771Z,31.78
2019-04-11T09:57:41.924Z,31.78
2019-04-11T09:58:47.613Z,31.86
2019-04-11T10:00:27.384Z,33.29
2019-04-11T10:01:56.678Z,33.40
2019-04-11T10:03:19.629Z,33.40
2019-04-11T10:04:23.380Z,33.30
2019-04-11T10:06:03.473Z,31.53
2019-04-11T10:07:34.048Z,32.06
2019-04-11T10:08:44.915Z,31.36
2019-04-11T10:10:08.566Z,31.68
2019-04-11T10:11:40.124Z,31.65
2019-04-11T10:13:02.639Z,32.47
2019-04-11T10:14:10.079Z,33.34
2019-04-11T10:15:13.550Z,33.34
2019-04-11T10:16:48.683Z,32.86
2019-04-11T10:18:20.193Z,32.23
2019-04-11T10:19:32.103Z,31.14
2019-04-11T10:20:35.395Z,31.14
2019-04-11T10:21:39.603Z,30.85
2019-04-11T10:23:12.205Z,30.73
2019-04-11T10:24:34.647Z,30.42
2019-04-11T10:25:54.047Z,30.26
2019-04-11T10:27:06.758Z,30.39
2019-04-11T10:28:25.078Z,30.39
2019-04-11T10:29:45.487Z,31.05
2019-04-11T10:42:51.993Z,30.68
2019-04-11T10:43:55.209Z,30.77
2019-04-11T10:45:26.835Z,30.45
2019-04-11T10:46:49.566Z,31.75
2019-04-11T10:47:55.942Z,31.58
2019-04-11T10:49:05.984Z,31.67
2019-04-11T10:50:42.520Z,31.67
2019-04-11T10:52:04.662Z,32.54
2019-04-11T10:53:08.950Z,31.36
2019-04-11T10:54:15.585Z,30.68
2019-04-11T10:55:22.041Z,31.63
2019-04-11T10:56:40.975Z,31.66
2019-04-11T10:57:46.909Z,31.14
2019-04-11T10:58:55.448Z,30.46
2019-04-11T10:59:59.855Z,30.76
2019-04-11T11:01:20.088Z,30.82
2019-04-11T11:02:43.057Z,30.17
2019-04-11T11:03:51.686Z,29.74
2019-04-11T11:04:56.997Z,29.21
2019-04-11T11:06:01.477Z,29.21
2019-04-11T11:07:16.752Z,29.46
2019-04-11T11:08:47.891Z,29.05
2019-04-11T11:10:12.331Z,28.81
2019-04-11T11:11:28.792Z,29.36
2019-04-11T11:12:37.100Z,29.90
2019-04-11T11:14:14.318Z,30.13
2019-04-11T11:15:20.241Z,30.15
2019-04-11T11:16:29.233Z,30.17
2019-04-11T11:18:00.985Z,30.52
2019-04-11T11:19:40.381Z,31.28
2019-04-11T11:20:53.127Z,30.36
2019-04-11T11:22:00.434Z,29.90
2019-04-11T11:23:29.113Z,30.09
2019-04-11T11:24:58.051Z,29.82
2019-04-11T11:26:22.556Z,29.82
2019-04-11T11:27:24.435Z,29.74
2019-04-11T11:28:30.062Z,29.74
2019-04-11T11:29:41.221Z,29.61
2019-04-11T11:31:03.265Z,29.87
2019-04-11T11:32:27.911Z,29.87
2019-04-11T11:33:38.451Z,30.15
2019-04-11T11:35:12.826Z,29.80
2019-04-11T11:36:43.843Z,30.01
2019-04-11T11:37:59.832Z,29.95
2019-04-11T11:39:22.507Z,30.16
2019-04-11T11:40:52.048Z,29.80
2019-04-11T11:42:30.373Z,29.26
2019-04-11T11:43:35.239Z,30.17
2019-04-11T11:44:46.664Z,30.16
2019-04-11T11:46:07.083Z,29.47
2019-04-11T11:47:39.885Z,28.86
2019-04-11T11:48:51.079Z,28.86
2019-04-11T11:49:58.572Z,28.83
2019-04-11T11:50:59.147Z,28.71
2019-04-11T11:52:33.373Z,28.45
2019-04-11T11:53:53.208Z,28.45
2019-04-11T11:54:57.013Z,28.99
2019-04-11T11:56:01.996Z,28.52
2019-04-11T11:57:09.035Z,28.53
2019-04-11T11:58:33.477Z,28.11
2019-04-11T11:59:42.934Z,28.07
2019-04-11T12:00:48.053Z,28.54
2019-04-11T12:01:58.401Z,28.21
2019-04-11T12:03:27.703Z,28.06
2019-04-11T12:04:50.265Z,26.61
2019-04-11T12:05:56.923Z,27.25
2019-04-11T12:07:05.248Z,27.29
2019-04-11T12:08:30.726Z,27.45
2019-04-11T12:09:53.023Z,26.82
2019-04-11T12:11:04.451Z,26.81
2019-04-11T12:12:15.988Z,27.75
2019-04-11T12:13:47.491Z,27.96
2019-04-11T12:15:14.310Z,28.28
2019-04-11T12:16:23.680Z,27.51
2019-04-11T12:17:47.027Z,28.13
2019-04-11T12:19:07.157Z,27.90
2019-04-11T12:20:16.543Z,27.41
2019-04-11T12:21:26.332Z,27.41
2019-04-11T12:22:38.474Z,27.63
2019-04-11T12:24:06.552Z,27.57
2019-04-11T12:25:14.579Z,27.62
2019-04-11T12:26:18.438Z,27.15
2019-04-11T12:27:39.994Z,26.90
2019-04-11T12:29:02.798Z,27.47
2019-04-11T12:30:26.605Z,27.80
2019-04-11T12:31:28.742Z,27.31
2019-04-11T12:32:32.944Z,27.31
2019-04-11T12:33:55.915Z,27.25
2019-04-11T12:35:18.123Z,27.25
2019-04-11T12:36:28.398Z,26.56
2019-04-11T12:37:36.467Z,27.13
2019-04-11T12:38:57.053Z,27.13
2019-04-11T12:40:18.744Z,27.07
2019-04-11T12:41:59.897Z,27.16
2019-04-11T12:43:03.981Z,27.92
2019-04-11T12:44:23.993Z,28.20
2019-04-11T12:46:03.804Z,28.20
2019-04-11T12:47:41.499Z,28.20
2019-04-11T12:48:48.397Z,27.79
2019-04-11T12:50:08.538Z,27.76
2019-04-11T12:51:39.246Z,27.34
2019-04-11T12:53:10.393Z,27.15
2019-04-11T12:54:23.732Z,27.15
2019-04-11T12:55:45.274Z,26.98
2019-04-11T12:57:08.565Z,27.59
2019-04-11T12:58:32.809Z,27.63
2019-04-11T12:59:35.975Z,27.63
2019-04-11T13:00:49.752Z,27.05
2019-04-11T13:02:14.215Z,27.05
2019-04-11T13:03:47.719Z,28.12
2019-04-11T13:04:50.897Z,29.32
2019-04-11T13:05:57.308Z,29.84
2019-04-11T13:07:34.751Z,29.93
2019-04-11T13:09:02.331Z,29.24
2019-04-11T13:10:24.311Z,28.73
2019-04-11T13:11:27.315Z,29.86
2019-04-11T13:12:55.138Z,29.86
2019-04-11T13:14:19.557Z,30.56
2019-04-11T13:15:36.494Z,29.77
2019-04-11T13:16:40.013Z,29.77
2019-04-11T13:17:46.250Z,30.15
2019-04-11T13:19:07.199Z,30.15
2019-04-11T13:20:37.919Z,29.76
2019-04-11T13:21:52.580Z,28.30
2019-04-11T13:22:58.161Z,28.30
2019-04-11T13:24:24.031Z,29.20
2019-04-11T13:26:01.110Z,28.95
2019-04-11T13:27:18.451Z,28.40
2019-04-11T13:28:21.799Z,28.40
2019-04-11T13:29:43.942Z,28.62
2019-04-11T13:31:20.643Z,27.13
2019-04-11T13:32:35.579Z,27.13
2019-04-11T13:33:38.997Z,27.02
2019-04-11T13:34:43.059Z,27.20
2019-04-11T13:36:05.064Z,27.20
2019-04-11T13:37:25.153Z,28.52
2019-04-11T13:38:33.508Z,28.69
2019-04-11T13:39:36.725Z,28.69
2019-04-11T13:41:04.938Z,28.43
2019-04-11T13:42:28.234Z,28.60
2019-04-11T13:43:36.919Z,28.49
2019-04-11T13:44:40.962Z,28.46
2019-04-11T13:45:57.527Z,28.70
2019-04-11T13:47:18.061Z,28.70
2019-04-11T13:48:54.622Z,28.70
2019-04-11T13:50:00.277Z,27.47
2019-04-11T13:51:07.611Z,27.47
2019-04-11T13:52:29.409Z,28.26
2019-04-11T13:53:54.369Z,28.44
2019-04-11T13:55:22.249Z,27.84
2019-04-11T13:56:32.562Z,27.20
2019-04-11T13:58:00.182Z,26.57
2019-04-11T13:59:20.486Z,26.63
2019-04-11T14:00:43.427Z,26.70
2019-04-11T14:01:46.518Z,27.80
2019-04-11T14:03:16.039Z,27.32
2019-04-11T14:04:24.767Z,26.89
2019-04-11T14:05:28.172Z,26.67
2019-04-11T14:06:38.894Z,27.50
2019-04-11T14:07:42.158Z,27.08
2019-04-11T14:08:53.870Z,27.18
2019-04-11T14:09:59.097Z,28.04
2019-04-11T14:11:14.817Z,27.28
2019-04-11T14:12:18.340Z,26.85
2019-04-11T14:13:34.642Z,26.85
2019-04-11T14:14:56.278Z,26.99
2019-04-11T14:16:01.284Z,26.99
2019-04-11T14:17:23.317Z,26.74
2019-04-11T14:18:41.589Z,26.92
2019-04-11T14:20:04.300Z,27.01
2019-04-11T14:21:14.903Z,26.70
2019-04-11T14:22:28.793Z,26.66
2019-04-11T14:23:46.821Z,26.61
2019-04-11T14:25:13.517Z,26.28
2019-04-11T14:26:32.588Z,27.13
2019-04-11T14:27:35.480Z,26.81
2019-04-11T14:28:45.013Z,26.67
2019-04-11T14:29:58.443Z,26.65
2019-04-11T14:31:31.983Z,26.76
2019-04-11T14:32:35.982Z,26.93
2019-04-11T14:33:40.715Z,27.23
2019-04-11T14:35:11.891Z,27.23
2019-04-11T14:36:33.527Z,27.55
2019-04-11T14:37:49.617Z,27.55
2019-04-11T14:38:56.190Z,28.59
2019-04-11T14:40:05.225Z,28.59
2019-04-11T14:41:25.279Z,29.37
2019-04-11T14:42:56.279Z,29.00
2019-04-11T14:44:02.335Z,27.85
2019-04-11T14:45:06.931Z,28.24
2019-04-11T14:46:28.768Z,28.10
2019-04-11T14:47:48.326Z,28.10
2019-04-11T14:48:56.895Z,27.78
2019-04-11T14:50:03.051Z,27.48
2019-04-11T14:51:17.675Z,27.48
2019-04-11T14:52:51.276Z,26.77
2019-04-11T14:54:18.294Z,26.77
2019-04-11T14:55:21.400Z,26.94
2019-04-11T14:56:27.252Z,25.80
2019-04-11T14:57:55.709Z,25.80
2019-04-11T14:59:24.755Z,23.72
2019-04-11T15:00:33.538Z,23.72
2019-04-11T15:01:36.437Z,22.64
2019-04-11T15:02:56.765Z,21.80
2019-04-11T15:04:33.532Z,21.44
2019-04-11T15:05:47.852Z,21.16
2019-04-11T15:06:52.239Z,21.07
2019-04-11T15:07:55.559Z,21.03
2019-04-11T15:09:20.275Z,20.87
2019-04-11T15:10:57.086Z,21.30
2019-04-11T15:12:05.517Z,21.30
2019-04-11T15:13:09.390Z,23.74
2019-04-11T15:14:22.792Z,23.74
2019-04-11T15:15:47.773Z,24.02
2019-04-11T15:17:12.402Z,22.39
2019-04-11T15:18:17.546Z,22.04
2019-04-11T15:19:20.373Z,22.04
2019-04-11T15:21:06.623Z,22.12
2019-04-11T15:22:26.164Z,21.77
2019-04-11T15:23:31.698Z,21.77
2019-04-11T15:24:37.441Z,22.05
2019-04-11T15:26:11.101Z,22.18
2019-04-11T15:27:32.763Z,23.24
2019-04-11T15:28:55.090Z,23.24
2019-04-11T15:30:09.299Z,24.04
2019-04-11T15:31:19.746Z,24.03
2019-04-11T15:32:39.991Z,23.71
2019-04-11T15:34:11.209Z,22.84
2019-04-11T15:35:16.688Z,22.84
2019-04-11T15:36:21.436Z,22.17
2019-04-11T15:37:55.253Z,21.94
2019-04-11T15:39:16.420Z,21.89
2019-04-11T15:40:41.947Z,22.17
2019-04-11T15:41:45.792Z,22.17
2019-04-11T15:43:04.542Z,22.26
2019-04-11T15:44:26.372Z,22.22
2019-04-11T15:45:38.335Z,24.03
2019-04-11T15:46:47.531Z,23.70
2019-04-11T15:48:02.451Z,23.01
2019-04-11T15:49:42.276Z,23.01
2019-04-11T15:51:06.901Z,22.70
2019-04-11T15:52:11.620Z,24.20
2019-04-11T15:53:20.471Z,29.43
2019-04-11T15:54:42.592Z,29.99
2019-04-11T15:56:02.446Z,29.27
2019-04-11T15:57:23.806Z,27.84
2019-04-11T15:58:34.167Z,26.00
2019-04-11T15:59:58.393Z,24.82